Time;durP1;ratioP1;P1;durP2;ratioP2;P2;SDS_P1;SDS_P2;PMS_P1;PMS_P2;Temp;Humidity;BMP_temperature;BMP_pressure;BME280_temperature;BME280_humidity;BME280_pressure;Samples;Min_cycle;Max_cycle;Signal;HPM_P1;HPM_P2
2022/03/20 00:01:17;;;;;;;5.57;4.13;;;6.20;99.90;;;;;;5031270;28;20131;-70
2022/03/20 00:03:43;;;;;;;5.85;3.55;;;5.70;99.90;;;;;;5030274;28;20103;-70
2022/03/20 00:06:08;;;;;;;6.10;3.20;;;6.10;99.90;;;;;;5028947;28;20041;-70
2022/03/20 00:08:34;;;;;;;5.88;3.28;;;6.40;99.90;;;;;;5032425;28;20058;-70
2022/03/20 00:11:01;;;;;;;5.38;2.92;;;5.90;99.90;;;;;;5029439;28;20491;-70
2022/03/20 00:13:30;;;;;;;8.95;3.38;;;5.90;99.90;;;;;;5029929;28;20111;-70
2022/03/20 00:15:57;;;;;;;6.68;3.35;;;5.80;99.90;;;;;;5031767;28;20053;-70
2022/03/20 00:18:25;;;;;;;8.30;3.30;;;5.50;99.90;;;;;;5032530;28;20528;-70
2022/03/20 00:20:54;;;;;;;5.85;3.08;;;5.90;99.90;;;;;;5031976;28;20053;-70
2022/03/20 00:23:20;;;;;;;6.32;3.20;;;5.80;99.90;;;;;;5033335;28;20064;-70
2022/03/20 00:25:46;;;;;;;4.43;2.97;;;5.60;99.90;;;;;;5033255;28;20379;-70
2022/03/20 00:28:16;;;;;;;6.82;3.20;;;5.50;99.90;;;;;;5031992;28;20095;-69
2022/03/20 00:30:42;;;;;;;7.65;3.30;;;5.40;99.90;;;;;;5030197;28;20048;-70
2022/03/20 00:33:08;;;;;;;6.35;2.88;;;5.90;99.90;;;;;;5028547;28;20421;-70
2022/03/20 00:35:34;;;;;;;7.22;4.18;;;6.00;99.90;;;;;;5030025;28;20059;-70
2022/03/20 00:38:00;;;;;;;5.18;3.22;;;5.30;99.90;;;;;;5030472;28;20508;-70
2022/03/20 00:40:26;;;;;;;5.45;3.03;;;5.40;99.90;;;;;;5027950;28;20055;-70
2022/03/20 00:42:52;;;;;;;5.82;2.97;;;5.60;99.90;;;;;;5030998;28;20041;-70
2022/03/20 00:45:18;;;;;;;4.95;3.28;;;5.60;99.90;;;;;;5032643;28;20045;-70
2022/03/20 00:47:44;;;;;;;6.43;3.30;;;5.50;99.90;;;;;;5031643;28;20127;-70
2022/03/20 00:50:10;;;;;;;7.18;3.20;;;5.10;99.90;;;;;;5030953;28;20461;-71
2022/03/20 00:52:36;;;;;;;8.30;3.33;;;5.30;99.90;;;;;;5027249;28;20828;-71
2022/03/20 00:55:03;;;;;;;8.50;3.45;;;5.10;99.90;;;;;;5029535;28;20469;-70
2022/03/20 00:57:28;;;;;;;8.10;3.65;;;5.00;99.90;;;;;;5031310;28;20045;-70
2022/03/20 00:59:54;;;;;;;8.40;3.50;;;5.80;99.90;;;;;;5029354;28;20115;-71
2022/03/20 01:02:20;;;;;;;5.47;3.00;;;4.90;99.90;;;;;;5029797;28;20057;-71
2022/03/20 01:04:47;;;;;;;4.97;3.08;;;5.20;99.90;;;;;;5029264;28;20045;-71
2022/03/20 01:07:12;;;;;;;6.25;3.47;;;5.00;99.90;;;;;;5028400;28;20482;-72
2022/03/20 01:09:38;;;;;;;5.78;2.97;;;5.10;99.90;;;;;;5030813;28;20096;-72
2022/03/20 01:12:06;;;;;;;4.90;2.88;;;5.10;99.90;;;;;;5029874;28;20057;-70
2022/03/20 01:14:32;;;;;;;5.00;3.35;;;4.90;99.90;;;;;;5029824;28;20045;-71
2022/03/20 01:16:58;;;;;;;6.68;3.20;;;5.40;99.90;;;;;;5035819;28;20056;-71
2022/03/20 01:19:25;;;;;;;6.00;3.40;;;5.30;99.90;;;;;;5015541;28;20049;-71
2022/03/20 01:21:53;;;;;;;5.97;2.78;;;5.80;99.90;;;;;;5033345;28;20046;-71
2022/03/20 01:24:19;;;;;;;6.20;3.85;;;5.10;99.90;;;;;;5032863;28;20084;-71
2022/03/20 01:26:45;;;;;;;4.82;3.38;;;5.10;99.90;;;;;;5034027;28;20077;-71
2022/03/20 01:29:11;;;;;;;5.78;3.83;;;4.80;99.90;;;;;;5013735;28;20099;-71
2022/03/20 01:31:38;;;;;;;5.10;3.38;;;5.10;99.90;;;;;;5016940;28;20048;-71
2022/03/20 01:34:05;;;;;;;7.50;3.67;;;5.50;99.90;;;;;;5034124;28;20157;-71
2022/03/20 01:36:31;;;;;;;6.53;3.60;;;4.80;99.90;;;;;;5031567;28;20081;-71
2022/03/20 01:38:57;;;;;;;5.03;3.63;;;5.00;99.90;;;;;;5034042;28;20084;-71
2022/03/20 01:41:23;;;;;;;9.05;3.72;;;4.70;99.90;;;;;;5033986;28;20046;-71
2022/03/20 01:43:53;;;;;;;7.43;4.30;;;4.90;99.90;;;;;;5015154;28;20041;-71
2022/03/20 01:46:19;;;;;;;8.73;3.75;;;4.80;99.90;;;;;;5035297;28;20045;-71
2022/03/20 01:48:45;;;;;;;6.18;3.67;;;5.60;99.90;;;;;;5035274;28;20046;-72
2022/03/20 01:51:12;;;;;;;8.07;4.15;;;4.70;99.90;;;;;;5029418;28;20057;-71
2022/03/20 01:53:37;;;;;;;5.40;3.92;;;4.90;99.90;;;;;;5032638;28;20116;-71
2022/03/20 01:56:04;;;;;;;8.07;4.47;;;4.70;99.90;;;;;;5031026;28;20084;-71
2022/03/20 01:58:30;;;;;;;8.52;3.90;;;4.60;99.90;;;;;;5030566;28;20041;-71
2022/03/20 02:00:56;;;;;;;9.07;4.00;;;4.80;99.90;;;;;;5030045;28;20084;-70
2022/03/20 02:03:22;;;;;;;6.78;4.05;;;4.70;99.90;;;;;;5032453;28;20076;-71
2022/03/20 02:05:48;;;;;;;8.30;4.18;;;4.60;99.90;;;;;;5030435;28;20046;-71
2022/03/20 02:08:14;;;;;;;8.20;4.38;;;4.80;99.90;;;;;;5030095;28;20038;-71
2022/03/20 02:10:43;;;;;;;8.35;4.70;;;5.20;99.90;;;;;;5033377;28;20046;-71
2022/03/20 02:13:09;;;;;;;7.05;4.28;;;4.90;99.90;;;;;;5033366;28;20053;-70
2022/03/20 02:15:36;;;;;;;9.43;4.30;;;4.70;99.90;;;;;;5032252;28;20072;-72
2022/03/20 02:18:03;;;;;;;8.38;4.78;;;4.90;99.90;;;;;;5032313;28;20053;-71
2022/03/20 02:20:29;;;;;;;7.55;4.28;;;4.50;99.90;;;;;;5030001;28;20413;-71
2022/03/20 02:22:55;;;;;;;9.25;4.97;;;4.50;99.90;;;;;;5030366;28;20045;-71
2022/03/20 02:25:21;;;;;;;8.27;4.57;;;4.50;99.90;;;;;;5030572;28;20049;-71
2022/03/20 02:27:47;;;;;;;7.63;4.93;;;4.60;99.90;;;;;;5029153;28;20041;-71
2022/03/20 02:30:16;;;;;;;8.98;5.22;;;4.80;99.90;;;;;;5033101;28;20501;-71
2022/03/20 02:32:51;;;;;;;8.63;4.65;;;4.70;99.90;;;;;;5030758;28;20073;-71
2022/03/20 02:35:18;;;;;;;9.80;5.30;;;4.50;99.90;;;;;;5029943;28;20132;-71
2022/03/20 02:37:49;;;;;;;8.48;5.30;;;4.40;99.90;;;;;;5034102;28;20049;-71
2022/03/20 02:40:17;;;;;;;11.48;5.78;;;4.40;99.90;;;;;;5028992;28;20537;-71
2022/03/20 02:42:48;;;;;;;9.48;5.13;;;4.40;99.90;;;;;;5034631;28;20377;-71
2022/03/20 02:45:30;;;;;;;9.88;6.15;;;4.70;99.90;;;;;;5027514;28;20045;-71
2022/03/20 02:47:58;;;;;;;8.88;5.57;;;4.90;99.90;;;;;;5031022;28;20045;-71
2022/03/20 02:50:29;;;;;;;9.20;5.90;;;4.60;99.90;;;;;;5014678;28;20207;-71
2022/03/20 02:53:04;;;;;;;9.70;5.60;;;4.50;99.90;;;;;;5032278;28;20057;-71
2022/03/20 02:55:35;;;;;;;11.07;5.82;;;4.70;99.90;;;;;;5026341;28;20528;-71
2022/03/20 02:58:04;;;;;;;8.30;5.72;;;5.10;99.90;;;;;;5032663;28;20049;-71
2022/03/20 03:00:32;;;;;;;10.30;5.90;;;5.30;99.90;;;;;;5029916;28;20048;-71
2022/03/20 03:02:59;;;;;;;7.97;5.82;;;4.40;99.90;;;;;;5029242;28;20048;-71
2022/03/20 03:05:28;;;;;;;9.30;6.53;;;4.60;99.90;;;;;;5029575;28;20555;-71
2022/03/20 03:11:01;;;;;;;10.10;5.70;;;4.70;99.90;;;;;;5029566;28;20045;-71
2022/03/20 03:13:37;;;;;;;8.48;5.53;;;4.30;99.90;;;;;;5031016;28;20430;-71
2022/03/20 03:16:05;;;;;;;8.43;6.20;;;4.10;99.90;;;;;;5032001;28;20052;-71
2022/03/20 03:18:31;;;;;;;9.35;5.65;;;4.10;99.90;;;;;;5026400;28;20104;-71
2022/03/20 03:20:59;;;;;;;13.65;7.07;;;4.70;99.90;;;;;;5033539;28;20045;-71
2022/03/20 03:23:25;;;;;;;12.98;5.97;;;4.60;99.90;;;;;;5029193;28;20057;-71
2022/03/20 03:25:51;;;;;;;15.00;6.88;;;5.10;99.90;;;;;;5027093;28;20401;-71
2022/03/20 03:28:17;;;;;;;9.52;6.75;;;4.60;99.90;;;;;;5030069;28;20048;-71
2022/03/20 03:30:47;;;;;;;11.13;6.32;;;4.20;99.90;;;;;;5032595;28;20046;-71
2022/03/20 03:33:16;;;;;;;11.07;6.70;;;3.90;99.90;;;;;;5032099;28;20046;-71
2022/03/20 03:35:43;;;;;;;10.27;6.80;;;4.10;99.90;;;;;;5029754;28;20486;-71
2022/03/20 03:38:18;;;;;;;11.32;6.75;;;4.90;99.90;;;;;;5029186;28;20386;-71
2022/03/20 03:40:46;;;;;;;10.40;6.82;;;5.00;99.90;;;;;;5033504;28;20132;-71
2022/03/20 03:43:15;;;;;;;13.07;7.28;;;4.10;99.90;;;;;;5033544;28;20071;-71
2022/03/20 03:45:41;;;;;;;10.77;6.32;;;4.20;99.90;;;;;;5033635;28;20046;-71
2022/03/20 03:48:08;;;;;;;12.52;6.50;;;4.60;99.90;;;;;;5033564;28;20052;-71
2022/03/20 03:50:37;;;;;;;8.27;5.65;;;3.80;99.90;;;;;;5032239;28;20229;-71
2022/03/20 03:53:03;;;;;;;10.30;6.15;;;3.90;99.90;;;;;;5033480;28;20048;-70
2022/03/20 03:55:31;;;;;;;10.98;7.43;;;4.20;99.90;;;;;;5033453;28;20085;-72
2022/03/20 03:57:57;;;;;;;12.18;6.85;;;4.20;99.90;;;;;;5033428;28;20046;-71
2022/03/20 04:00:24;;;;;;;11.15;7.18;;;3.80;99.90;;;;;;5032527;28;20061;-71
2022/03/20 04:02:50;;;;;;;12.30;7.82;;;4.30;99.90;;;;;;5033695;28;20071;-71
2022/03/20 04:05:17;;;;;;;12.38;7.07;;;4.10;99.90;;;;;;5034003;28;20054;-71
2022/03/20 04:07:45;;;;;;;16.05;7.82;;;3.80;99.90;;;;;;5032355;28;20053;-71
2022/03/20 04:10:11;;;;;;;11.75;7.35;;;3.80;99.90;;;;;;5032219;28;20096;-71
2022/03/20 04:12:40;;;;;;;11.88;6.82;;;4.50;99.90;;;;;;5033256;28;20081;-71
2022/03/20 04:15:07;;;;;;;10.85;7.18;;;4.60;99.90;;;;;;5032995;28;20555;-71
2022/03/20 04:17:33;;;;;;;12.27;7.47;;;3.70;99.90;;;;;;5033705;28;20045;-70
2022/03/20 04:20:00;;;;;;;10.63;6.78;;;4.00;99.90;;;;;;5033198;28;20057;-70
2022/03/20 04:22:26;;;;;;;13.20;7.10;;;4.30;99.90;;;;;;5033275;28;20037;-71
2022/03/20 04:24:53;;;;;;;12.60;7.47;;;3.70;99.90;;;;;;5032943;28;20052;-72
2022/03/20 04:27:19;;;;;;;12.52;7.75;;;4.80;99.90;;;;;;5033134;28;20567;-71
2022/03/20 04:29:46;;;;;;;12.60;7.35;;;4.00;99.90;;;;;;5032536;28;20193;-71
2022/03/20 04:32:12;;;;;;;13.07;7.80;;;3.80;99.90;;;;;;5033294;28;20052;-72
2022/03/20 04:34:38;;;;;;;11.52;8.15;;;4.50;99.90;;;;;;5032430;28;20049;-71
2022/03/20 04:37:05;;;;;;;11.75;7.22;;;4.80;99.90;;;;;;5033108;28;20049;-71
2022/03/20 04:39:33;;;;;;;11.10;8.27;;;3.40;99.90;;;;;;5036747;28;20049;-71
2022/03/20 04:41:59;;;;;;;12.05;7.72;;;5.50;99.90;;;;;;5035644;28;20111;-71
2022/03/20 04:44:25;;;;;;;11.52;8.02;;;3.90;99.90;;;;;;5036682;28;20041;-70
2022/03/20 04:46:52;;;;;;;14.38;8.30;;;3.60;99.90;;;;;;5036586;28;20548;-71
2022/03/20 05:00:16;;;;;;;13.63;8.20;;;4.00;99.90;;;;;;5034396;28;20084;-71
2022/03/20 05:02:42;;;;;;;10.57;7.03;;;4.70;99.90;;;;;;5036293;28;20057;-71
2022/03/20 05:05:09;;;;;;;14.85;8.82;;;3.40;99.90;;;;;;5036256;28;20080;-71
2022/03/20 05:07:35;;;;;;;15.43;8.75;;;3.60;99.90;;;;;;5035078;28;20050;-72
2022/03/20 05:15:31;;;;;;;14.90;8.98;;;4.50;99.90;;;;;;5036493;28;20053;-70
2022/03/20 05:17:57;;;;;;;12.68;8.05;;;3.60;99.90;;;;;;5035981;28;20049;-71
2022/03/20 05:20:23;;;;;;;12.98;8.30;;;3.60;99.90;;;;;;5035966;28;20045;-70
2022/03/20 05:22:50;;;;;;;17.38;9.65;;;3.60;99.90;;;;;;5035919;28;20056;-71
2022/03/20 05:25:17;;;;;;;13.38;9.30;;;4.20;99.90;;;;;;5035882;28;20060;-71
2022/03/20 05:27:44;;;;;;;15.07;9.38;;;3.70;99.90;;;;;;5035952;28;20135;-70
2022/03/20 05:30:10;;;;;;;14.50;8.93;;;3.70;99.90;;;;;;5034207;28;20057;-70
2022/03/20 05:32:38;;;;;;;12.13;8.48;;;3.20;99.90;;;;;;5035657;28;20424;-70
2022/03/20 05:35:11;;;;;;;15.00;10.10;;;3.50;99.90;;;;;;5035774;28;20045;-71
2022/03/20 05:37:36;;;;;;;14.82;9.65;;;3.40;99.90;;;;;;5034715;28;20049;-71
2022/03/20 05:40:04;;;;;;;14.35;9.40;;;3.90;99.90;;;;;;5036002;28;20041;-71
2022/03/20 05:42:30;;;;;;;13.52;9.00;;;3.40;99.90;;;;;;5034546;28;20050;-70
2022/03/20 05:44:56;;;;;;;14.40;8.70;;;4.00;99.90;;;;;;5034522;28;20497;-71
2022/03/20 05:47:22;;;;;;;14.70;8.73;;;3.30;99.90;;;;;;5035430;28;20481;-71
2022/03/20 05:49:49;;;;;;;13.60;9.40;;;3.70;99.90;;;;;;5016627;28;20058;-71
2022/03/20 05:52:15;;;;;;;15.30;9.73;;;3.70;99.90;;;;;;5035665;28;20441;-70
2022/03/20 05:54:41;;;;;;;14.73;9.13;;;3.60;99.90;;;;;;5034444;28;20111;-71
2022/03/20 05:59:54;;;;;;;15.88;8.93;;;3.70;99.90;;;;;;5034911;28;20367;-71
2022/03/20 06:02:20;;;;;;;14.95;9.57;;;3.40;99.90;;;;;;5035194;28;20103;-71
2022/03/20 06:04:46;;;;;;;15.40;9.57;;;3.90;99.90;;;;;;5035232;28;20057;-71
2022/03/20 06:07:12;;;;;;;17.05;9.02;;;3.60;99.90;;;;;;5033865;28;20498;-71
2022/03/20 06:09:38;;;;;;;15.02;9.60;;;3.60;99.90;;;;;;5034448;28;20441;-71
2022/03/20 06:12:06;;;;;;;15.70;8.73;;;3.40;99.90;;;;;;5034888;28;20092;-71
2022/03/20 06:14:35;;;;;;;16.17;9.18;;;3.30;99.90;;;;;;5017717;28;20120;-71
2022/03/20 06:17:02;;;;;;;17.38;10.32;;;3.90;99.90;;;;;;5033943;28;20061;-71
2022/03/20 06:19:28;;;;;;;11.82;8.43;;;3.40;99.90;;;;;;5034768;28;20053;-72
2022/03/20 06:21:54;;;;;;;14.57;9.13;;;3.50;99.90;;;;;;5033692;28;20053;-71
2022/03/20 06:24:20;;;;;;;18.08;10.52;;;3.60;99.90;;;;;;5033603;28;20045;-72
2022/03/20 06:26:45;;;;;;;14.82;9.85;;;3.30;99.90;;;;;;5034739;28;20091;-71
2022/03/20 06:29:11;;;;;;;17.05;9.70;;;3.20;99.90;;;;;;5034054;28;20049;-71
2022/03/20 06:31:37;;;;;;;15.05;9.50;;;4.50;99.90;;;;;;5035015;28;20046;-71
2022/03/20 06:34:04;;;;;;;15.52;10.02;;;4.00;99.90;;;;;;5034538;28;20053;-71
2022/03/20 06:36:30;;;;;;;16.55;9.93;;;3.30;99.90;;;;;;5033369;28;20379;-71
2022/03/20 06:38:56;;;;;;;14.55;9.15;;;3.60;99.90;;;;;;5034454;28;20045;-72
2022/03/20 06:41:22;;;;;;;15.68;9.70;;;4.00;99.90;;;;;;5035054;28;20041;-71
2022/03/20 06:43:48;;;;;;;14.40;9.60;;;3.90;99.90;;;;;;5033398;28;20058;-71
2022/03/20 06:46:14;;;;;;;14.88;9.75;;;3.60;99.90;;;;;;5034437;28;20056;-71
2022/03/20 06:48:40;;;;;;;14.35;10.18;;;3.60;99.90;;;;;;5034301;28;20068;-71
2022/03/20 06:51:05;;;;;;;17.23;9.77;;;3.40;99.90;;;;;;5034412;28;20041;-72
2022/03/20 06:53:32;;;;;;;15.05;9.90;;;4.30;99.90;;;;;;5034227;28;20555;-72
2022/03/20 06:55:58;;;;;;;15.05;9.88;;;3.90;99.90;;;;;;5034226;28;20045;-71
2022/03/20 06:58:24;;;;;;;17.50;10.43;;;4.10;99.90;;;;;;5032729;28;20144;-71
2022/03/20 07:00:50;;;;;;;14.07;10.63;;;4.40;99.90;;;;;;5033438;28;20049;-71
2022/03/20 07:03:16;;;;;;;13.68;9.18;;;3.80;99.90;;;;;;5035164;28;20053;-71
2022/03/20 07:05:42;;;;;;;16.45;9.43;;;4.50;99.90;;;;;;5034450;28;20478;-71
2022/03/20 07:08:08;;;;;;;15.70;8.55;;;4.30;99.90;;;;;;5033234;28;20057;-71
2022/03/20 07:10:36;;;;;;;18.25;10.52;;;4.00;99.90;;;;;;5033932;28;20049;-71
2022/03/20 07:15:48;;;;;;;18.38;10.48;;;4.10;99.90;;;;;;5034142;28;20050;-71
2022/03/20 07:18:16;;;;;;;16.88;9.90;;;4.00;99.90;;;;;;5033968;28;20045;-71
2022/03/20 07:20:44;;;;;;;16.27;9.68;;;3.70;99.90;;;;;;5033753;28;20045;-71
2022/03/20 07:23:10;;;;;;;14.15;10.15;;;3.90;99.90;;;;;;5034235;28;20045;-70
2022/03/20 07:31:06;;;;;;;15.55;8.93;;;3.90;99.90;;;;;;5033687;28;20060;-71
2022/03/20 07:33:33;;;;;;;15.30;9.38;;;5.60;99.90;;;;;;5033655;28;20071;-70
2022/03/20 07:35:59;;;;;;;16.02;9.77;;;4.80;99.90;;;;;;5033450;28;20096;-71
2022/03/20 07:38:26;;;;;;;15.60;10.13;;;3.90;99.90;;;;;;5032273;28;20409;-71
2022/03/20 07:40:52;;;;;;;17.98;10.95;;;4.10;99.90;;;;;;5033140;28;20186;-71
2022/03/20 07:43:17;;;;;;;16.25;10.57;;;4.50;99.90;;;;;;5033142;28;20128;-70
2022/03/20 07:45:44;;;;;;;16.42;9.75;;;4.70;99.90;;;;;;5033468;28;20128;-70
2022/03/20 07:48:10;;;;;;;14.90;10.18;;;4.20;99.90;;;;;;5032239;28;20108;-70
2022/03/20 07:50:36;;;;;;;14.23;9.63;;;4.90;99.90;;;;;;5033353;28;20058;-70
2022/03/20 07:53:02;;;;;;;21.25;11.10;;;4.20;99.90;;;;;;5032134;28;20054;-71
2022/03/20 07:55:28;;;;;;;14.68;9.68;;;4.40;99.90;;;;;;5033350;28;20501;-70
2022/03/20 07:57:55;;;;;;;17.52;10.23;;;4.80;99.90;;;;;;5016460;28;20053;-71
2022/03/20 08:00:21;;;;;;;16.58;10.60;;;4.90;99.90;;;;;;5032429;28;20099;-73
2022/03/20 08:02:48;;;;;;;15.68;9.70;;;5.10;99.90;;;;;;5026056;28;20452;-72
2022/03/20 08:05:14;;;;;;;15.45;9.40;;;4.70;99.90;;;;;;5021603;28;20092;-77
2022/03/20 08:07:40;;;;;;;17.30;11.02;;;4.80;99.90;;;;;;5023945;28;20084;-75
2022/03/20 08:10:11;;;;;;;16.88;10.18;;;5.00;99.90;;;;;;5021943;28;20069;-76
2022/03/20 08:12:38;;;;;;;17.00;9.93;;;4.50;99.90;;;;;;5022670;28;20080;-75
2022/03/20 08:15:05;;;;;;;16.52;10.85;;;5.40;99.90;;;;;;5026072;28;20047;-76
2022/03/20 08:17:31;;;;;;;15.98;10.15;;;4.60;99.90;;;;;;5010099;28;20053;-76
2022/03/20 08:19:57;;;;;;;15.40;10.48;;;4.70;99.90;;;;;;5024810;28;20056;-74
2022/03/20 08:22:27;;;;;;;17.35;10.30;;;5.10;99.90;;;;;;5026106;28;20096;-72
2022/03/20 08:24:52;;;;;;;15.85;10.50;;;5.10;99.90;;;;;;5026461;28;20041;-72
2022/03/20 08:27:20;;;;;;;16.15;10.68;;;4.70;99.90;;;;;;5008075;28;20046;-72
2022/03/20 08:29:46;;;;;;;15.73;9.63;;;4.90;99.90;;;;;;4991314;28;20072;-72
2022/03/20 08:32:12;;;;;;;15.65;10.40;;;5.20;99.90;;;;;;5024156;28;20099;-72
2022/03/20 08:34:37;;;;;;;16.10;10.88;;;5.20;99.90;;;;;;5027565;28;20042;-72
2022/03/20 08:37:03;;;;;;;15.88;10.85;;;5.30;99.90;;;;;;5026753;28;20042;-71
2022/03/20 08:39:29;;;;;;;15.93;10.57;;;5.00;99.90;;;;;;5027092;28;20045;-73
2022/03/20 08:41:55;;;;;;;17.15;10.52;;;5.50;99.90;;;;;;5025466;28;20065;-72
2022/03/20 08:44:20;;;;;;;18.85;12.00;;;5.30;99.90;;;;;;5026831;28;20482;-70
2022/03/20 08:46:46;;;;;;;18.10;11.80;;;5.20;99.90;;;;;;5026626;28;20046;-70
2022/03/20 08:49:12;;;;;;;17.35;10.63;;;5.80;99.90;;;;;;5023874;28;20050;-74
2022/03/20 08:51:39;;;;;;;16.67;12.50;;;5.50;99.90;;;;;;5027117;28;20045;-76
2022/03/20 08:54:05;;;;;;;20.25;12.43;;;5.90;99.90;;;;;;5035622;28;20071;-72
2022/03/20 08:56:33;;;;;;;17.60;11.50;;;5.50;99.90;;;;;;5036185;28;20037;-71
2022/03/20 08:58:59;;;;;;;19.25;12.02;;;5.60;99.90;;;;;;5034281;28;20132;-72
2022/03/20 09:01:25;;;;;;;17.33;12.13;;;6.40;99.90;;;;;;5036348;28;20049;-71
2022/03/20 09:03:52;;;;;;;16.80;11.50;;;6.00;99.90;;;;;;5036290;28;20144;-71
2022/03/20 09:06:21;;;;;;;19.48;12.18;;;6.10;99.90;;;;;;5035045;28;20042;-71
2022/03/20 09:08:49;;;;;;;20.50;12.88;;;6.10;99.90;;;;;;5035930;28;20099;-71
2022/03/20 09:11:15;;;;;;;18.60;12.18;;;5.90;99.90;;;;;;5036060;28;20183;-72
2022/03/20 09:13:41;;;;;;;18.88;10.90;;;6.80;99.90;;;;;;5036300;28;20049;-71
2022/03/20 09:19:00;;;;;;;19.50;11.43;;;6.60;99.90;;;;;;5021352;28;20049;-72
2022/03/20 09:21:32;;;;;;;20.35;12.90;;;6.10;99.90;;;;;;5036098;28;20128;-72
2022/03/20 09:23:58;;;;;;;21.90;12.43;;;6.30;99.90;;;;;;5035923;28;20045;-72
2022/03/20 09:26:24;;;;;;;19.58;12.20;;;6.50;99.50;;;;;;5035919;28;20398;-72
2022/03/20 09:28:50;;;;;;;19.63;11.15;;;6.60;99.00;;;;;;5034164;28;20124;-71
2022/03/20 09:31:16;;;;;;;18.73;12.48;;;6.70;98.80;;;;;;5034760;28;20052;-72
2022/03/20 09:33:43;;;;;;;19.67;12.15;;;6.50;98.60;;;;;;5035516;28;20414;-70
2022/03/20 09:36:10;;;;;;;18.55;12.18;;;6.50;98.40;;;;;;5035722;28;20132;-71
2022/03/20 09:38:36;;;;;;;21.17;12.85;;;6.60;98.40;;;;;;5035672;28;20049;-70
2022/03/20 09:41:08;;;;;;;18.50;13.02;;;6.90;98.20;;;;;;5036282;28;20132;-71
2022/03/20 09:43:39;;;;;;;20.42;13.43;;;6.90;98.20;;;;;;5034135;28;20528;-71
2022/03/20 09:46:05;;;;;;;16.95;11.48;;;6.70;96.70;;;;;;5035804;28;20374;-71
2022/03/20 09:48:31;;;;;;;17.42;12.77;;;6.80;96.80;;;;;;5035826;28;20457;-72
2022/03/20 09:50:58;;;;;;;19.70;13.85;;;7.30;96.60;;;;;;5035073;28;20509;-71
2022/03/20 09:53:25;;;;;;;19.60;12.57;;;7.30;96.40;;;;;;5035383;28;20462;-71
2022/03/20 09:55:57;;;;;;;18.60;12.57;;;7.30;96.50;;;;;;5034110;28;20042;-71
2022/03/20 09:58:28;;;;;;;20.17;13.50;;;7.40;96.00;;;;;;5033953;28;20498;-71
2022/03/20 10:00:55;;;;;;;21.75;13.20;;;7.20;95.30;;;;;;5034689;28;20089;-71
2022/03/20 10:03:24;;;;;;;19.77;13.35;;;7.70;95.30;;;;;;5035139;28;20057;-71
2022/03/20 10:06:17;;;;;;;17.85;11.60;;;7.30;94.10;;;;;;5035116;28;20119;-71
2022/03/20 10:08:55;;;;;;;19.33;13.00;;;7.50;94.00;;;;;;5018162;28;20068;-71
2022/03/20 10:11:22;;;;;;;20.30;13.32;;;7.40;94.70;;;;;;5034776;28;20142;-71
2022/03/20 10:14:06;;;;;;;20.45;13.27;;;7.80;93.80;;;;;;5034045;28;20470;-71
2022/03/20 10:16:33;;;;;;;20.00;13.07;;;7.50;93.70;;;;;;5034721;28;20128;-71
2022/03/20 10:18:59;;;;;;;18.92;13.52;;;7.80;93.10;;;;;;5035503;28;20077;-71
2022/03/20 10:21:45;;;;;;;25.23;14.52;;;7.80;93.00;;;;;;5035522;28;20474;-71
2022/03/20 10:24:16;;;;;;;21.95;13.75;;;7.60;93.10;;;;;;5034810;28;20049;-70
2022/03/20 10:26:42;;;;;;;22.33;14.07;;;7.80;92.30;;;;;;5035657;28;20041;-71
2022/03/20 10:29:15;;;;;;;20.33;13.60;;;7.80;91.60;;;;;;5016514;28;20132;-71
2022/03/20 10:31:49;;;;;;;;;;;7.90;91.30;;;;;;5033927;28;20045;-71
2022/03/20 10:34:15;;;;;;;21.80;13.90;;;7.80;90.70;;;;;;5034654;28;20019;-71
2022/03/20 10:36:43;;;;;;;20.98;14.07;;;7.90;91.30;;;;;;5033058;28;20045;-71
2022/03/20 10:39:16;;;;;;;19.38;13.02;;;8.00;91.00;;;;;;5034491;28;20046;-71
2022/03/20 10:41:43;;;;;;;;;;;8.00;89.10;;;;;;5034932;28;20067;-70
2022/03/20 10:44:14;;;;;;;19.02;11.93;;;8.10;90.70;;;;;;5016669;28;19921;-73
2022/03/20 10:46:41;;;;;;;21.38;12.95;;;8.40;89.50;;;;;;5034370;28;20060;-72
2022/03/20 10:49:07;;;;;;;20.38;14.40;;;8.10;88.70;;;;;;5034524;28;20045;-70
2022/03/20 10:51:39;;;;;;;19.42;13.00;;;8.20;88.50;;;;;;5033123;28;20095;-71
2022/03/20 10:54:20;;;;;;;20.17;14.00;;;8.30;86.40;;;;;;5034334;28;20524;-71
2022/03/20 10:56:59;;;;;;;22.48;13.38;;;8.30;86.50;;;;;;5034312;28;20049;-71
2022/03/20 10:59:26;;;;;;;20.40;13.10;;;8.40;86.40;;;;;;5016179;28;20064;-70
2022/03/20 11:01:53;;;;;;;20.85;13.63;;;8.50;87.70;;;;;;5032936;28;20050;-71
2022/03/20 11:04:19;;;;;;;19.05;13.80;;;9.10;87.60;;;;;;5034242;28;20048;-71
2022/03/20 11:06:49;;;;;;;18.65;13.60;;;8.80;87.30;;;;;;5016571;28;20111;-71
2022/03/20 11:09:16;;;;;;;20.45;13.77;;;8.60;84.80;;;;;;5016676;28;20140;-71
2022/03/20 11:11:51;;;;;;;19.70;13.57;;;8.90;86.50;;;;;;5032717;28;20041;-71
2022/03/20 11:14:20;;;;;;;22.23;14.02;;;8.90;85.10;;;;;;5016544;28;20478;-71
2022/03/20 11:16:59;;;;;;;21.05;13.60;;;9.00;84.20;;;;;;5034199;28;20436;-71
2022/03/20 11:19:29;;;;;;;20.73;13.15;;;8.80;81.80;;;;;;5033119;28;20060;-70
2022/03/20 11:22:03;;;;;;;19.88;14.30;;;9.00;83.80;;;;;;5034283;28;20051;-70
2022/03/20 11:24:29;;;;;;;21.05;14.80;;;8.90;81.20;;;;;;5033036;28;20098;-71
2022/03/20 11:27:00;;;;;;;20.90;14.10;;;9.00;83.40;;;;;;5033821;28;20045;-71
2022/03/20 11:29:29;;;;;;;19.60;13.43;;;9.00;83.20;;;;;;5033357;28;20089;-71
2022/03/20 11:31:55;;;;;;;19.45;13.60;;;9.10;81.90;;;;;;5032915;28;20045;-71
2022/03/20 11:34:24;;;;;;;19.77;14.40;;;9.40;81.60;;;;;;5030587;28;20448;-72
2022/03/20 11:37:06;;;;;;;20.20;13.57;;;9.20;81.60;;;;;;5032917;28;20053;-72
2022/03/20 11:39:33;;;;;;;20.48;13.88;;;9.30;80.10;;;;;;5031829;28;20083;-71
2022/03/20 11:42:25;;;;;;;19.95;13.82;;;9.30;79.90;;;;;;5033256;28;20056;-72
2022/03/20 11:45:10;;;;;;;20.38;13.35;;;9.40;78.00;;;;;;5033599;28;20081;-72
2022/03/20 11:47:40;;;;;;;21.80;14.38;;;9.70;79.10;;;;;;5034706;28;20053;-72
2022/03/20 11:50:14;;;;;;;19.65;13.48;;;9.50;76.50;;;;;;5038319;28;20060;-72
2022/03/20 11:52:45;;;;;;;20.52;13.43;;;9.50;75.50;;;;;;5036540;28;20049;-72
2022/03/20 11:55:26;;;;;;;18.35;13.38;;;9.70;76.30;;;;;;5036622;28;20456;-72
2022/03/20 11:57:52;;;;;;;22.50;13.93;;;9.60;77.80;;;;;;5036596;28;20088;-71
2022/03/20 12:00:23;;;;;;;21.02;13.82;;;9.70;77.00;;;;;;5035634;28;20139;-71
2022/03/20 12:02:55;;;;;;;22.63;14.48;;;9.80;77.10;;;;;;5037521;28;20054;-72
2022/03/20 12:05:27;;;;;;;21.65;13.77;;;9.90;77.30;;;;;;5036288;28;20103;-71
2022/03/20 12:08:21;;;;;;;19.45;13.40;;;9.90;76.90;;;;;;5037317;28;20071;-72
2022/03/20 12:11:04;;;;;;;19.98;13.93;;;9.90;75.00;;;;;;5037109;28;20402;-71
2022/03/20 12:13:57;;;;;;;19.02;14.25;;;10.00;75.10;;;;;;5037561;28;20132;-69
2022/03/20 12:16:42;;;;;;;20.63;13.52;;;9.90;76.20;;;;;;5019548;28;20061;-68
2022/03/20 12:19:09;;;;;;;18.85;12.57;;;10.10;75.50;;;;;;5037274;28;20053;-68
2022/03/20 12:22:00;;;;;;;17.27;12.07;;;10.20;74.20;;;;;;5037027;28;20049;-69
2022/03/20 12:24:34;;;;;;;19.75;13.40;;;10.10;72.30;;;;;;5037770;28;20484;-69
2022/03/20 12:27:19;;;;;;;17.80;12.40;;;10.40;74.30;;;;;;5037041;28;20057;-69
2022/03/20 12:29:45;;;;;;;18.15;13.45;;;10.30;73.50;;;;;;5035256;28;20053;-69
2022/03/20 12:32:13;;;;;;;18.33;13.10;;;10.30;72.70;;;;;;5036777;28;20045;-69
2022/03/20 12:35:06;;;;;;;18.92;13.25;;;10.30;71.70;;;;;;5036883;28;20128;-69
2022/03/20 12:37:37;;;;;;;20.98;13.90;;;10.40;71.40;;;;;;5037084;28;20050;-69
2022/03/20 12:40:02;;;;;;;19.27;13.02;;;10.30;70.00;;;;;;5037026;28;20084;-70
2022/03/20 12:42:34;;;;;;;20.45;13.40;;;10.40;71.20;;;;;;5036846;28;20096;-70
2022/03/20 12:45:00;;;;;;;18.20;12.80;;;10.30;71.20;;;;;;5035791;28;20444;-70
2022/03/20 12:47:28;;;;;;;21.83;13.90;;;10.40;70.70;;;;;;5036671;28;20098;-70
2022/03/20 12:50:22;;;;;;;18.75;12.52;;;10.40;70.60;;;;;;5035399;28;20049;-70
2022/03/20 12:52:53;;;;;;;19.75;13.80;;;10.90;71.10;;;;;;5033311;28;20136;-69
2022/03/20 12:55:28;;;;;;;17.17;13.45;;;10.60;71.00;;;;;;5036836;28;20133;-68
2022/03/20 12:57:54;;;;;;;19.02;13.52;;;10.60;70.50;;;;;;5034893;28;20060;-69
2022/03/20 13:00:23;;;;;;;19.45;13.57;;;10.70;70.50;;;;;;5035942;28;20057;-69
2022/03/20 13:03:08;;;;;;;17.90;13.07;;;10.70;70.50;;;;;;5036330;28;20050;-72
2022/03/20 13:05:54;;;;;;;17.40;13.13;;;11.10;69.90;;;;;;5036109;28;20527;-69
2022/03/20 13:08:30;;;;;;;22.25;13.63;;;11.00;67.50;;;;;;5035350;28;20049;-69
2022/03/20 13:10:58;;;;;;;17.23;13.20;;;10.90;67.80;;;;;;5035599;28;20184;-69
2022/03/20 13:13:28;;;;;;;20.50;13.52;;;11.30;70.10;;;;;;5030648;28;20425;-70
2022/03/20 13:15:54;;;;;;;18.38;14.25;;;11.00;68.80;;;;;;5027133;28;20049;-69
2022/03/20 13:18:25;;;;;;;17.65;12.88;;;11.10;68.60;;;;;;5030553;28;20171;-70
2022/03/20 13:20:51;;;;;;;19.02;13.32;;;11.00;68.70;;;;;;5025484;28;20064;-70
2022/03/20 13:23:22;;;;;;;18.75;12.52;;;11.10;68.30;;;;;;5013293;28;20053;-71
2022/03/20 13:25:53;;;;;;;18.05;13.38;;;11.10;68.70;;;;;;5029049;28;20085;-69